createdAt,value
2023-12-22T00:01:24.410Z,98146.81
2023-12-22T00:03:51.259Z,98165.22
2023-12-22T00:06:18.098Z,98156.41
2023-12-22T00:08:44.841Z,98161.38
2023-12-22T00:11:11.594Z,98142.31
2023-12-22T00:13:38.322Z,98128.44
2023-12-22T00:16:05.301Z,98120.84
2023-12-22T00:18:32.115Z,98086.34
2023-12-22T00:21:00.029Z,98065.72
2023-12-22T00:23:26.651Z,98075.63
2023-12-22T00:25:53.489Z,98088.69
2023-12-22T00:28:20.360Z,98094.34
2023-12-22T00:30:47.134Z,98087.06
2023-12-22T00:33:13.860Z,98090.13
2023-12-22T00:35:43.162Z,98121.56
2023-12-22T00:38:10.117Z,98124.19
2023-12-22T00:40:38.376Z,98116.94
2023-12-22T00:43:11.376Z,98130.66
2023-12-22T00:45:39.549Z,98132.06
2023-12-22T00:48:06.416Z,98144.97
2023-12-22T00:50:39.339Z,98144.34
2023-12-22T00:53:06.255Z,98113.41
2023-12-22T00:55:32.927Z,98111.75
2023-12-22T00:58:01.354Z,98095.47
2023-12-22T01:00:28.029Z,98084.66
2023-12-22T01:02:57.887Z,98078.16
2023-12-22T01:05:24.656Z,98070.59
2023-12-22T01:07:51.804Z,98070.28
2023-12-22T01:10:18.713Z,98095.09
2023-12-22T01:12:45.561Z,98098.84
2023-12-22T01:15:12.426Z,98108.56
2023-12-22T01:17:39.379Z,98100.81
2023-12-22T01:20:06.423Z,98097.59
2023-12-22T01:22:34.568Z,98095.53
2023-12-22T01:25:01.224Z,98084.91
2023-12-22T01:27:28.047Z,98083.31
2023-12-22T01:29:54.673Z,98071.72
2023-12-22T01:32:21.743Z,98052.41
2023-12-22T01:34:48.468Z,98066.78
2023-12-22T01:37:15.459Z,98062.91
2023-12-22T01:39:44.775Z,98042.63
2023-12-22T01:42:14.035Z,98041.63
2023-12-22T01:44:40.852Z,98045.31
2023-12-22T01:47:07.718Z,98042.25
2023-12-22T01:49:34.540Z,98029.34
2023-12-22T01:52:01.388Z,98024.19
2023-12-22T01:54:31.461Z,97987.72
2023-12-22T01:56:58.402Z,98021.94
2023-12-22T01:59:25.275Z,98049.97
2023-12-22T02:01:55.983Z,98016.28
2023-12-22T02:04:24.331Z,98022.72
2023-12-22T02:06:54.165Z,98027.41
2023-12-22T02:09:26.380Z,98031.56
2023-12-22T02:11:53.002Z,98044.19
2023-12-22T02:14:20.264Z,98048.84
2023-12-22T02:16:51.489Z,98031.75
2023-12-22T02:19:41.229Z,98005.13
2023-12-22T02:22:10.003Z,98008.69
2023-12-22T02:24:41.195Z,98013.53
2023-12-22T02:27:16.689Z,98018.88
2023-12-22T02:30:20.212Z,98009.50
2023-12-22T02:32:50.215Z,98030.66
2023-12-22T02:35:24.044Z,98026.78
2023-12-22T02:37:51.635Z,97996.16
2023-12-22T02:40:19.816Z,98011.63
2023-12-22T02:42:46.677Z,98014.56
2023-12-22T02:45:18.145Z,98013.72
2023-12-22T02:47:45.474Z,98011.16
2023-12-22T02:50:17.015Z,98011.63
2023-12-22T02:52:43.917Z,98024.69
2023-12-22T02:55:13.478Z,98016.00
2023-12-22T02:57:40.415Z,98011.81
2023-12-22T03:00:07.801Z,98012.47
2023-12-22T03:02:37.923Z,98003.25
2023-12-22T03:05:09.928Z,97991.19
2023-12-22T03:07:36.748Z,98002.63
2023-12-22T03:10:03.670Z,97988.75
2023-12-22T03:12:30.349Z,97987.63
2023-12-22T03:15:00.825Z,97976.66
2023-12-22T03:17:27.494Z,97971.63
2023-12-22T03:19:54.472Z,97983.25
2023-12-22T03:22:21.209Z,97953.06
2023-12-22T03:24:50.994Z,97923.22
2023-12-22T03:27:20.538Z,97921.41
2023-12-22T03:29:47.244Z,97913.19
2023-12-22T03:32:14.032Z,97933.53
2023-12-22T03:34:40.814Z,97923.50
2023-12-22T03:37:07.628Z,97930.63
2023-12-22T03:39:34.332Z,97930.63
2023-12-22T03:42:03.062Z,97934.31
2023-12-22T03:44:29.855Z,97945.63
2023-12-22T03:46:56.578Z,97955.13
2023-12-22T03:49:27.494Z,97942.56
2023-12-22T03:52:00.173Z,97957.09
2023-12-22T03:54:27.496Z,97955.00
2023-12-22T03:56:54.467Z,97951.59
2023-12-22T03:59:21.206Z,97941.63
2023-12-22T04:01:54.395Z,97940.63
2023-12-22T04:04:24.312Z,97944.97
2023-12-22T04:06:53.753Z,97947.25
2023-12-22T04:09:20.697Z,97939.03
2023-12-22T04:11:47.426Z,97949.50
2023-12-22T04:14:14.257Z,97949.69
2023-12-22T04:16:44.121Z,97946.63
2023-12-22T04:19:12.319Z,97957.09
2023-12-22T04:21:39.832Z,97946.47
2023-12-22T04:24:07.032Z,97954.38
2023-12-22T04:26:33.778Z,97974.72
2023-12-22T04:29:00.564Z,97983.25
2023-12-22T04:31:27.408Z,97986.50
2023-12-22T04:33:55.097Z,97993.44
2023-12-22T04:36:24.299Z,97985.34
2023-12-22T04:38:54.106Z,98004.09
2023-12-22T04:41:23.284Z,98005.06
2023-12-22T04:43:50.170Z,97998.41
2023-12-22T04:46:16.835Z,98003.59
2023-12-22T04:48:45.438Z,98009.72
2023-12-22T04:51:12.102Z,98011.34
2023-12-22T04:53:38.913Z,98011.03
2023-12-22T04:56:06.088Z,98009.38
2023-12-22T04:58:32.970Z,98024.41
2023-12-22T05:00:59.930Z,98029.88
2023-12-22T05:03:26.705Z,98043.59
2023-12-22T05:05:53.482Z,98041.50
2023-12-22T05:08:20.293Z,98026.81
2023-12-22T05:10:47.018Z,98039.06
2023-12-22T05:13:16.203Z,98046.50
2023-12-22T05:15:43.447Z,98045.53
2023-12-22T05:18:10.174Z,98052.75
2023-12-22T05:20:37.078Z,98051.00
2023-12-22T05:23:04.094Z,98059.41
2023-12-22T05:25:30.863Z,98055.50
2023-12-22T05:27:58.357Z,98062.78
2023-12-22T05:30:25.277Z,98078.72
2023-12-22T05:32:52.085Z,98072.56
2023-12-22T05:35:18.963Z,98069.31
2023-12-22T05:37:45.769Z,98066.28
2023-12-22T05:40:12.520Z,98085.59
2023-12-22T05:42:39.160Z,98078.16
2023-12-22T05:45:06.848Z,98081.72
2023-12-22T05:47:34.160Z,98074.41
2023-12-22T05:50:01.447Z,98082.63
2023-12-22T05:52:28.263Z,98092.44
2023-12-22T05:54:55.072Z,98103.06
2023-12-22T05:57:21.922Z,98098.69
2023-12-22T05:59:48.539Z,98120.63
2023-12-22T06:02:15.190Z,98123.81
2023-12-22T06:04:41.963Z,98129.00
2023-12-22T06:07:09.972Z,98135.56
2023-12-22T06:09:38.546Z,98140.25
2023-12-22T06:12:06.293Z,98153.81
2023-12-22T06:14:41.828Z,98157.50
2023-12-22T06:17:12.402Z,98168.16
2023-12-22T06:19:39.271Z,98170.22
2023-12-22T06:22:06.007Z,98175.88
2023-12-22T06:24:33.033Z,98173.94
2023-12-22T06:26:59.676Z,98175.88
2023-12-22T06:29:28.116Z,98171.06
2023-12-22T06:31:56.168Z,98183.16
2023-12-22T06:34:22.923Z,98184.78
2023-12-22T06:36:49.696Z,98191.72
2023-12-22T06:39:16.418Z,98184.19
2023-12-22T06:41:43.054Z,98194.81
2023-12-22T06:44:09.770Z,98208.31
2023-12-22T06:46:36.881Z,98213.47
2023-12-22T06:49:05.430Z,98217.03
2023-12-22T06:51:33.684Z,98228.09
2023-12-22T06:54:04.285Z,98237.41
2023-12-22T06:56:36.085Z,98252.06
2023-12-22T06:59:06.298Z,98256.53
2023-12-22T07:01:35.342Z,98264.19
2023-12-22T07:04:04.205Z,98270.75
2023-12-22T07:06:35.939Z,98279.00
2023-12-22T07:09:21.094Z,98284.19
2023-12-22T07:11:53.109Z,98286.00
2023-12-22T07:14:20.002Z,98289.94
2023-12-22T07:16:52.538Z,98293.66
2023-12-22T07:19:22.159Z,98303.44
2023-12-22T07:21:49.163Z,98319.97
2023-12-22T07:24:19.124Z,98324.66
2023-12-22T07:26:46.096Z,98329.78
2023-12-22T07:29:13.184Z,98333.38
2023-12-22T07:31:43.281Z,98337.31
2023-12-22T07:34:10.708Z,98336.97
2023-12-22T07:36:43.572Z,98334.25
2023-12-22T07:39:18.067Z,98339.00
2023-12-22T07:41:44.828Z,98341.22
2023-12-22T07:44:11.537Z,98342.66
2023-12-22T07:46:38.225Z,98349.75
2023-12-22T07:49:05.061Z,98355.25
2023-12-22T07:51:31.817Z,98343.53
2023-12-22T07:54:03.969Z,98352.53
2023-12-22T07:56:30.691Z,98358.78
2023-12-22T07:59:10.099Z,98367.28
2023-12-22T08:01:46.003Z,98368.69
2023-12-22T08:04:14.455Z,98380.13
2023-12-22T08:06:41.463Z,98375.69
2023-12-22T08:09:08.328Z,98386.69
2023-12-22T08:11:34.973Z,98395.06
2023-12-22T08:14:04.577Z,98388.91
2023-12-22T08:16:31.296Z,98387.50
2023-12-22T08:18:58.195Z,98389.00
2023-12-22T08:21:33.721Z,98392.31
2023-12-22T08:24:08.881Z,98377.00
2023-12-22T08:26:35.722Z,98388.56
2023-12-22T08:29:02.711Z,98384.41
2023-12-22T08:31:29.512Z,98398.13
2023-12-22T08:33:56.522Z,98397.28
2023-12-22T08:36:23.319Z,98397.50
2023-12-22T08:38:50.706Z,98398.31
2023-12-22T08:41:17.968Z,98405.13
2023-12-22T08:43:47.606Z,98408.28
2023-12-22T08:46:14.343Z,98403.78
2023-12-22T08:48:41.226Z,98408.06
2023-12-22T08:51:08.324Z,98402.84
2023-12-22T08:53:36.236Z,98403.50
2023-12-22T08:56:03.573Z,98412.88
2023-12-22T08:58:31.162Z,98407.91
2023-12-22T09:00:58.045Z,98399.28
2023-12-22T09:03:25.053Z,98399.50
2023-12-22T09:05:54.624Z,98392.25
2023-12-22T09:08:27.014Z,98397.56
2023-12-22T09:10:54.327Z,98394.81
2023-12-22T09:13:21.159Z,98392.13
2023-12-22T09:15:47.982Z,98386.94
2023-12-22T09:18:17.605Z,98387.81
2023-12-22T09:20:44.363Z,98405.53
2023-12-22T09:23:14.162Z,98408.91
2023-12-22T09:25:41.064Z,98404.13
2023-12-22T09:28:07.782Z,98405.63
2023-12-22T09:30:34.772Z,98403.28
2023-12-22T09:33:01.442Z,98401.72
2023-12-22T09:35:28.332Z,98400.81
2023-12-22T09:37:55.204Z,98403.50
2023-12-22T09:40:22.105Z,98407.38
2023-12-22T09:42:50.168Z,98406.97
2023-12-22T09:45:35.156Z,98404.19
2023-12-22T09:48:02.969Z,98405.06
2023-12-22T09:50:31.380Z,98420.84
2023-12-22T09:52:58.495Z,98414.69
2023-12-22T09:55:28.457Z,98407.91
2023-12-22T09:57:59.040Z,98402.91
2023-12-22T10:00:30.120Z,98382.75
2023-12-22T10:02:59.508Z,98393.53
2023-12-22T10:05:26.510Z,98389.50
2023-12-22T10:07:54.761Z,98385.19
2023-12-22T10:10:23.140Z,98396.06
2023-12-22T10:12:54.589Z,98405.97
2023-12-22T10:15:23.584Z,98402.97
2023-12-22T10:17:53.668Z,98399.03
2023-12-22T10:20:21.127Z,98391.53
2023-12-22T10:22:48.068Z,98397.06
2023-12-22T10:25:21.897Z,98384.38
2023-12-22T10:27:48.939Z,98383.03
2023-12-22T10:30:16.117Z,98373.00
2023-12-22T10:32:43.053Z,98364.06
2023-12-22T10:35:12.782Z,98382.25
2023-12-22T10:37:39.709Z,98375.03
2023-12-22T10:40:08.343Z,98375.56
2023-12-22T10:42:38.768Z,98381.59
2023-12-22T10:45:06.912Z,98378.22
2023-12-22T10:47:33.597Z,98387.69
2023-12-22T10:50:08.544Z,98375.47
2023-12-22T10:52:35.665Z,98366.91
2023-12-22T10:55:02.332Z,98374.63
2023-12-22T10:57:31.568Z,98382.03
2023-12-22T10:59:58.842Z,98381.50
2023-12-22T11:02:34.088Z,98397.13
2023-12-22T11:05:06.096Z,98384.16
2023-12-22T11:07:36.448Z,98386.03
2023-12-22T11:10:12.380Z,98375.03
2023-12-22T11:12:39.985Z,98366.25
2023-12-22T11:15:14.018Z,98368.38
2023-12-22T11:17:43.123Z,98388.16
2023-12-22T11:20:23.841Z,98390.22
2023-12-22T11:22:54.459Z,98387.84
2023-12-22T11:25:23.536Z,98396.72
2023-12-22T11:27:53.740Z,98397.56
2023-12-22T11:30:24.010Z,98399.13
2023-12-22T11:32:54.859Z,98396.34
2023-12-22T11:35:24.484Z,98396.38
2023-12-22T11:38:02.423Z,98396.78
2023-12-22T11:40:30.051Z,98384.28
2023-12-22T11:42:57.836Z,98396.13
2023-12-22T11:45:31.343Z,98387.91
2023-12-22T11:48:05.920Z,98391.16
2023-12-22T11:50:32.915Z,98389.22
2023-12-22T11:53:18.878Z,98387.97
2023-12-22T11:56:20.950Z,98376.22
2023-12-22T11:58:49.154Z,98372.13
2023-12-22T12:01:16.235Z,98374.28
2023-12-22T12:03:50.631Z,98370.25
2023-12-22T12:06:22.693Z,98357.88
2023-12-22T12:08:49.436Z,98354.59
2023-12-22T12:11:16.242Z,98359.22
2023-12-22T12:13:44.929Z,98338.38
2023-12-22T12:16:14.477Z,98343.97
2023-12-22T12:18:42.496Z,98334.50
2023-12-22T12:21:11.166Z,98336.31
2023-12-22T12:23:41.790Z,98343.00
2023-12-22T12:26:09.802Z,98352.28
2023-12-22T12:28:37.518Z,98337.75
2023-12-22T12:31:06.856Z,98335.56
2023-12-22T12:33:34.436Z,98344.88
2023-12-22T12:36:05.769Z,98346.25
2023-12-22T12:38:56.314Z,98349.28
2023-12-22T12:41:50.110Z,98369.69
2023-12-22T12:44:18.545Z,98353.66
2023-12-22T12:46:45.614Z,98357.84
2023-12-22T12:49:14.231Z,98360.19
2023-12-22T12:51:45.650Z,98364.44
2023-12-22T12:54:13.369Z,98360.06
2023-12-22T12:56:45.002Z,98359.19
2023-12-22T12:59:16.029Z,98358.41
2023-12-22T13:01:45.553Z,98355.22
2023-12-22T13:04:13.144Z,98365.94
2023-12-22T13:06:50.407Z,98354.06
2023-12-22T13:09:18.258Z,98359.28
2023-12-22T13:11:46.745Z,98355.09
2023-12-22T13:14:23.132Z,98354.41
2023-12-22T13:16:53.258Z,98365.66
2023-12-22T13:19:22.890Z,98382.63
2023-12-22T13:21:49.873Z,98382.56
2023-12-22T13:24:17.599Z,98374.72
2023-12-22T13:26:45.998Z,98377.56
2023-12-22T13:29:14.304Z,98380.66
2023-12-22T13:31:44.425Z,98374.50
2023-12-22T13:34:12.484Z,98381.78
2023-12-22T13:36:40.424Z,98375.31
2023-12-22T13:39:08.124Z,98381.78
2023-12-22T13:41:43.952Z,98393.28
2023-12-22T13:44:10.934Z,98384.06
2023-12-22T13:46:38.125Z,98382.09
2023-12-22T13:49:05.465Z,98381.09
2023-12-22T13:51:42.418Z,98379.16
2023-12-22T13:54:09.160Z,98382.97
2023-12-22T13:56:36.509Z,98385.94
2023-12-22T13:59:04.346Z,98388.69
2023-12-22T14:01:31.486Z,98400.13
2023-12-22T14:03:58.372Z,98396.59
2023-12-22T14:06:29.283Z,98403.97
2023-12-22T14:09:01.273Z,98400.38
2023-12-22T14:11:30.354Z,98397.78
2023-12-22T14:13:58.430Z,98397.72
2023-12-22T14:16:28.121Z,98400.97
2023-12-22T14:18:54.880Z,98408.53
2023-12-22T14:21:21.597Z,98402.16
2023-12-22T14:23:51.289Z,98400.19
2023-12-22T14:26:19.565Z,98404.06
2023-12-22T14:28:47.541Z,98403.63
2023-12-22T14:31:14.553Z,98399.78
2023-12-22T14:33:41.304Z,98395.22
2023-12-22T14:36:11.614Z,98391.22
2023-12-22T14:38:38.492Z,98386.59
2023-12-22T14:41:05.404Z,98383.63
2023-12-22T14:43:35.345Z,98382.03
2023-12-22T14:46:02.056Z,98380.16
2023-12-22T14:48:28.837Z,98370.09
2023-12-22T14:50:55.531Z,98372.53
2023-12-22T14:53:22.352Z,98358.53
2023-12-22T14:55:49.193Z,98359.97
2023-12-22T14:58:19.091Z,98361.41
2023-12-22T15:00:46.122Z,98353.44
2023-12-22T15:03:12.975Z,98349.47
2023-12-22T15:05:39.960Z,98355.69
2023-12-22T15:08:07.179Z,98352.66
2023-12-22T15:10:33.942Z,98351.53
2023-12-22T15:13:00.770Z,98355.97
2023-12-22T15:15:27.458Z,98364.50
2023-12-22T15:17:54.366Z,98374.09
2023-12-22T15:20:24.401Z,98374.66
2023-12-22T15:22:51.536Z,98382.88
2023-12-22T15:25:18.554Z,98374.03
2023-12-22T15:27:45.442Z,98375.38
2023-12-22T15:30:12.281Z,98387.97
2023-12-22T15:32:39.009Z,98383.31
2023-12-22T15:35:06.448Z,98374.78
2023-12-22T15:37:36.248Z,98374.41
2023-12-22T15:40:03.448Z,98371.38
2023-12-22T15:42:30.094Z,98373.47
2023-12-22T15:45:00.033Z,98367.88
2023-12-22T15:47:26.784Z,98368.47
2023-12-22T15:49:53.997Z,98371.31
2023-12-22T15:52:21.050Z,98374.28
2023-12-22T15:54:47.885Z,98387.09
2023-12-22T15:57:14.536Z,98380.59
2023-12-22T15:59:42.611Z,98373.06
2023-12-22T16:02:13.859Z,98377.94
2023-12-22T16:04:40.565Z,98392.75
2023-12-22T16:07:14.593Z,98395.09
2023-12-22T16:09:41.485Z,98392.97
2023-12-22T16:12:08.305Z,98398.13
2023-12-22T16:14:35.350Z,98389.09
2023-12-22T16:17:04.764Z,98384.06
2023-12-22T16:19:31.530Z,98382.19
2023-12-22T16:22:00.851Z,98379.88
2023-12-22T16:24:27.474Z,98377.53
2023-12-22T16:26:54.168Z,98375.13
2023-12-22T16:29:21.028Z,98400.94
2023-12-22T16:31:47.776Z,98376.75
2023-12-22T16:34:14.478Z,98372.28
2023-12-22T16:36:45.573Z,98372.16
2023-12-22T16:39:18.560Z,98375.91
2023-12-22T16:41:45.267Z,98387.06
2023-12-22T16:44:12.248Z,98391.94
2023-12-22T16:46:39.133Z,98391.84
2023-12-22T16:49:05.819Z,98384.41
2023-12-22T16:51:32.528Z,98381.50
2023-12-22T16:53:59.279Z,98376.13
2023-12-22T16:56:27.629Z,98367.13
2023-12-22T16:58:54.284Z,98357.25
2023-12-22T17:01:35.543Z,98368.81
2023-12-22T17:04:07.878Z,98357.38
2023-12-22T17:06:35.145Z,98363.34
2023-12-22T17:09:02.703Z,98358.47
2023-12-22T17:11:29.804Z,98366.19
2023-12-22T17:13:56.485Z,98371.75
2023-12-22T17:16:23.368Z,98395.47
2023-12-22T17:18:50.098Z,98382.56
2023-12-22T17:21:16.835Z,98380.16
2023-12-22T17:23:44.576Z,98378.03
2023-12-22T17:26:13.071Z,98393.00
2023-12-22T17:28:42.193Z,98401.50
2023-12-22T17:31:09.466Z,98417.94
2023-12-22T17:33:36.471Z,98415.47
2023-12-22T17:36:03.350Z,98422.13
2023-12-22T17:38:32.157Z,98424.63
2023-12-22T17:40:58.928Z,98410.59
2023-12-22T17:43:25.765Z,98422.06
2023-12-22T17:45:52.421Z,98429.78
2023-12-22T17:48:21.818Z,98409.31
2023-12-22T17:50:49.263Z,98425.06
2023-12-22T17:53:15.965Z,98441.94
2023-12-22T17:55:42.978Z,98446.59
2023-12-22T17:58:12.897Z,98445.56
2023-12-22T18:00:39.841Z,98443.28
2023-12-22T18:03:09.814Z,98439.69
2023-12-22T18:05:36.538Z,98430.41
2023-12-22T18:08:03.681Z,98435.47
2023-12-22T18:10:32.825Z,98437.69
2023-12-22T18:13:02.436Z,98441.44
2023-12-22T18:15:29.212Z,98448.47
2023-12-22T18:17:56.415Z,98433.09
2023-12-22T18:20:23.638Z,98430.34
2023-12-22T18:22:53.841Z,98415.56
2023-12-22T18:25:23.437Z,98416.16
2023-12-22T18:27:50.413Z,98428.75
2023-12-22T18:30:17.255Z,98425.22
2023-12-22T18:32:46.929Z,98417.72
2023-12-22T18:35:13.868Z,98420.25
2023-12-22T18:37:42.133Z,98420.78
2023-12-22T18:40:09.476Z,98419.25
2023-12-22T18:42:36.137Z,98402.00
2023-12-22T18:45:02.931Z,98404.84
2023-12-22T18:47:29.644Z,98410.75
2023-12-22T18:49:56.417Z,98407.63
2023-12-22T18:52:23.146Z,98409.25
2023-12-22T18:54:49.791Z,98425.78
2023-12-22T18:57:16.790Z,98442.88
2023-12-22T18:59:43.458Z,98435.31
2023-12-22T19:02:31.038Z,98434.66
2023-12-22T19:04:57.354Z,98440.53
2023-12-22T19:07:24.192Z,98430.91
2023-12-22T19:09:53.150Z,98430.13
2023-12-22T19:12:20.046Z,98441.06
2023-12-22T19:14:47.269Z,98426.19
2023-12-22T19:17:18.380Z,98438.44
2023-12-22T19:19:45.143Z,98446.75
2023-12-22T19:22:13.155Z,98445.44
2023-12-22T19:24:42.782Z,98460.34
2023-12-22T19:27:09.437Z,98444.25
2023-12-22T19:29:36.096Z,98466.41
2023-12-22T19:32:02.863Z,98488.38
2023-12-22T19:34:29.756Z,98507.25
2023-12-22T19:36:56.605Z,98504.03
2023-12-22T19:39:23.293Z,98501.03
2023-12-22T19:41:49.990Z,98498.06
2023-12-22T19:44:19.591Z,98501.91
2023-12-22T19:46:51.160Z,98504.56
2023-12-22T19:49:18.018Z,98509.53
2023-12-22T19:51:45.030Z,98515.44
2023-12-22T19:54:11.819Z,98506.09
2023-12-22T19:56:38.467Z,98503.66
2023-12-22T19:59:06.363Z,98493.53
2023-12-22T20:01:33.392Z,98503.28
2023-12-22T20:04:00.159Z,98490.69
2023-12-22T20:06:27.534Z,98487.47
2023-12-22T20:08:54.476Z,98493.53
2023-12-22T20:11:21.146Z,98510.72
2023-12-22T20:13:47.861Z,98497.84
2023-12-22T20:16:14.630Z,98499.59
2023-12-22T20:18:41.673Z,98486.38
2023-12-22T20:21:08.730Z,98486.19
2023-12-22T20:23:35.472Z,98479.91
2023-12-22T20:26:02.243Z,98482.56
2023-12-22T20:28:29.066Z,98485.78
2023-12-22T20:30:56.005Z,98483.44
2023-12-22T20:33:22.789Z,98476.44
2023-12-22T20:35:49.476Z,98470.59
2023-12-22T20:38:16.595Z,98468.28
2023-12-22T20:40:43.682Z,98470.44
2023-12-22T20:43:10.400Z,98459.06
2023-12-22T20:45:37.120Z,98463.53
2023-12-22T20:48:09.724Z,98462.72
2023-12-22T20:50:39.389Z,98449.53
2023-12-22T20:53:06.216Z,98444.88
2023-12-22T20:55:32.988Z,98435.22
2023-12-22T20:58:00.693Z,98436.75
2023-12-22T21:00:27.322Z,98437.88
2023-12-22T21:02:54.356Z,98445.47
2023-12-22T21:05:21.554Z,98442.25
2023-12-22T21:07:48.594Z,98429.28
2023-12-22T21:10:15.484Z,98429.47
2023-12-22T21:12:42.239Z,98433.53
2023-12-22T21:15:09.124Z,98436.16
2023-12-22T21:17:35.991Z,98444.75
2023-12-22T21:20:02.883Z,98439.00
2023-12-22T21:22:29.808Z,98453.50
2023-12-22T21:24:56.578Z,98457.06
2023-12-22T21:27:25.713Z,98445.09
2023-12-22T21:29:52.544Z,98431.41
2023-12-22T21:32:19.487Z,98436.75
2023-12-22T21:34:46.218Z,98435.75
2023-12-22T21:37:12.882Z,98434.94
2023-12-22T21:39:41.567Z,98439.72
2023-12-22T21:42:09.666Z,98430.59
2023-12-22T21:44:40.464Z,98433.03
2023-12-22T21:47:07.182Z,98437.38
2023-12-22T21:49:34.181Z,98438.59
2023-12-22T21:52:00.820Z,98425.63
2023-12-22T21:54:27.693Z,98411.41
2023-12-22T21:56:54.400Z,98409.81
2023-12-22T21:59:21.355Z,98403.81
2023-12-22T22:01:48.603Z,98412.72
2023-12-22T22:04:18.337Z,98423.81
2023-12-22T22:06:45.125Z,98413.75
2023-12-22T22:09:15.461Z,98419.50
2023-12-22T22:11:42.623Z,98424.50
2023-12-22T22:14:18.677Z,98428.66
2023-12-22T22:16:53.221Z,98432.19
2023-12-22T22:19:20.196Z,98442.53
2023-12-22T22:21:47.143Z,98440.59
2023-12-22T22:24:13.986Z,98440.41
2023-12-22T22:26:41.591Z,98440.00
2023-12-22T22:29:08.665Z,98442.84
2023-12-22T22:31:43.001Z,98435.56
2023-12-22T22:34:10.306Z,98425.94
2023-12-22T22:36:40.056Z,98439.72
2023-12-22T22:39:09.278Z,98432.72
2023-12-22T22:41:36.107Z,98433.72
2023-12-22T22:44:02.896Z,98438.69
2023-12-22T22:46:32.206Z,98437.16
2023-12-22T22:48:58.991Z,98438.91
2023-12-22T22:51:29.986Z,98435.84
2023-12-22T22:53:56.688Z,98440.09
2023-12-22T22:56:23.474Z,98445.38
2023-12-22T22:58:50.848Z,98439.09
2023-12-22T23:01:17.755Z,98443.06
2023-12-22T23:03:46.423Z,98444.97
2023-12-22T23:06:13.189Z,98448.63
2023-12-22T23:08:39.932Z,98455.53
2023-12-22T23:11:06.816Z,98458.34
2023-12-22T23:13:33.720Z,98450.16
2023-12-22T23:16:00.895Z,98449.84
2023-12-22T23:18:27.733Z,98459.38
2023-12-22T23:20:54.564Z,98445.69
2023-12-22T23:23:21.479Z,98437.28
2023-12-22T23:25:48.229Z,98441.84
2023-12-22T23:28:17.665Z,98425.81
2023-12-22T23:30:44.321Z,98426.66
2023-12-22T23:33:16.556Z,98412.22
2023-12-22T23:35:43.272Z,98407.56
2023-12-22T23:38:09.977Z,98415.66
2023-12-22T23:40:37.370Z,98418.53
2023-12-22T23:43:04.275Z,98447.53
2023-12-22T23:45:31.031Z,98443.28
2023-12-22T23:47:58.233Z,98433.94
2023-12-22T23:50:25.028Z,98450.78
2023-12-22T23:52:53.421Z,98426.94
2023-12-22T23:55:20.278Z,98414.47
2023-12-22T23:57:47.200Z,98408.78
